This is the latest recevied weather packets stored in our database for station/object W9GWP. If no packets are shown the sender has not sent any weather packets the latest 1 day(s).
| Time | Temp. | Humidity | Pressure | Rain* | Wind** | Luminosity | Snow |
|---|---|---|---|---|---|---|---|
| 1778078883 | 10.56° C | 46% | 1043.1 hPa | 0 mm | - | 334 W/m² | - |
| 1778077980 | 10.56° C | 47% | 1043 hPa | 0 mm | - | 355 W/m² | - |
| 1778072563 | 8.89° C | 58% | 1042.3 hPa | 0 mm | - | 191 W/m² | - |
| 1778068056 | 5° C | 87% | 1041.7 hPa | 0 mm | - | 35 W/m² | - |
| 1778067154 | 3.33° C | 92% | 1041.7 hPa | 0 mm | - | 28 W/m² | - |
| 1778061740 | 2.22° C | 91% | 1040.8 hPa | 0 mm | - | 0 W/m² | - |
| 1778060837 | 2.22° C | 91% | 1040.9 hPa | 0 mm | - | 0 W/m² | - |
| 1778059936 | 2.78° C | 90% | 1041 hPa | 0 mm | - | 0 W/m² | - |
| 1778059035 | 2.22° C | 89% | 1041 hPa | 0 mm | - | 0 W/m² | - |
| 1778058132 | 2.22° C | 87% | 1041.1 hPa | 0 mm | - | 0 W/m² | - |
| 1778057228 | 2.22° C | 86% | 1041 hPa | 0 mm | - | 0 W/m² | - |
| 1778056325 | 2.78° C | 83% | 1040.9 hPa | 0 mm | - | 0 W/m² | - |
| 1778053616 | 2.78° C | 77% | 1040.5 hPa | 0 mm | - | 0 W/m² | - |
| 1778051811 | 3.89° C | 72% | 1040.2 hPa | 0 mm | - | 0 W/m² | - |
| 1778050908 | 4.44° C | 70% | 1040.4 hPa | 0 mm | - | 0 W/m² | - |
| 1778049102 | 5.56° C | 65% | 1040.7 hPa | 0 mm | - | 0 W/m² | - |
| 1778046394 | 7.22° C | 59% | 1040.6 hPa | 0 mm | - | 0 W/m² | - |
| 1778045492 | 7.78° C | 56% | 1040.4 hPa | 0 mm | - | 0 W/m² | - |
| 1778044591 | 7.78° C | 57% | 1040.3 hPa | 0 mm | - | 0 W/m² | - |
| 1778043688 | 8.33° C | 55% | 1040.4 hPa | 0 mm | - | 0 W/m² | - |
| 1778042785 | 8.33° C | 55% | 1040.4 hPa | 0 mm | - | 0 W/m² | - |
| 1778041883 | 8.33° C | 55% | 1040.4 hPa | 0 mm | - | 0 W/m² | - |
| 1778040978 | 8.33° C | 55% | 1040 hPa | 0 mm | - | 0 W/m² | - |
| 1778039171 | 9.44° C | 51% | 1039.9 hPa | 0 mm | - | 0 W/m² | - |
| 1778038268 | 10° C | 50% | 1039.6 hPa | 0 mm | - | 0 W/m² | - |
* Rain latest hour (hover to see other rain measurements)
** Current wind speed in m/s (hover to see current wind gust speed)